Middleton, WI (53562)

1:27 AM CST on February 14, 2016 (GMT -0600)
Middleton | | Change Station
CLOSE
Current Station
Airport
Location: Middleton,
Elevation: 928 ft
Nearby Weather Stations
Active Advisory: Winter Weather Advisory

Elev 928 ft 43.12 °N, 89.53 °W | Updated 12 minutes ago

Clear
Clear
6 °F
Feels Like -3 °F
N
5
Wind Variable Wind from SE

Today
High -- | Low -- °F
--% Chance of Precip.
Yesterday
High -- | Low -- °F
Precip. -- in
Pressure 30.40 in
Visibility 10.0 miles
Clouds Clear
Windchill -3 °F
Dew Point -2 °F
Humidity 69%
Rainfall 0.00 in
Snow Depth Not available.
6:57 AM 5:27 PM
Waxing Crescent, 39% visible
METAR KC29 140715Z AUTO 13004KT 10SM CLR M15/M19 A3040 RMK AO1 T11461191
Pressure 30.40 in
Visibility 10.0 miles
Clouds Clear
Windchill -3 °F
Dew Point -2 °F
Humidity 69%
Rainfall 0.00 in
Snow Depth Not available.
6:57 AM 5:27 PM
Waxing Crescent, 39% visible
METAR KC29 140715Z AUTO 13004KT 10SM CLR M15/M19 A3040 RMK AO1 T11461191

10-Day Weather Forecast

Almanac

Astronomy

Feb. 14, 2016 Rise Set
Actual Time
Civil Twilight
Nautical Twilight
Astronomical Twilight
Moon
Length of Visible Light
Length of Day
Tomorrow will be .
, % of the Moon is Illuminated

Today's Extremes

State Highs State Lows

Community

WunderPhotos

Upload Photos

1,892,757 photos uploaded!

WunderBlog® & News

Nearby

Air Quality

  Air Quality AQ Index Pollutant
Not available.

Snow Depth

Station Depth Elevation

Earthquake Activity

City Distance Mag. Time & Date
Minimum magnitude displayed is 2.5.

Coastal Water Temperatures

Place Temperature

Stations

Nearby Weather Stations

Station Location Temp. Windchill Dew Point Humidity Wind Precip. Elev Updated Type
                   

Watches & Warnings

Winter Weather Advisory
Issued: 8:52 PM CST Feb. 13, 2016 – National Weather Service

... Winter Weather Advisory remains in effect from 6 am to 9 PM
CST Sunday...

A Winter Weather Advisory remains in effect from 6 am to 9 PM CST
Sunday.

* Timing... snow will start early to mid morning Sunday and
continue into Sunday evening.

* Snow accumulations... 3 to 4 inches.

* Winds... southeast 10 to 15 mph.

* Impacts... snow accumulation on untreated roads or surfaces
will create difficult travel conditions Sunday into Sunday
evening.

A Winter Weather Advisory for snow means that periods of snow
will cause primarily travel difficulties. Be prepared for snow
covered roads and limited visibilities... and use caution while
driving.



Hentz